Time;durP1;ratioP1;P1;durP2;ratioP2;P2;SDS_P1;SDS_P2;PMS_P1;PMS_P2;Temp;Humidity;BMP_temperature;BMP_pressure;BME280_temperature;BME280_humidity;BME280_pressure;Samples;Min_cycle;Max_cycle;Signal;HPM_P1;HPM_P2
2022/04/07 00:00:13;;;;;;;8.07;3.05;;;10.00;99.90;;;;;;4992551;28;20137;-87
2022/04/07 00:02:38;;;;;;;11.18;3.05;;;9.30;99.90;;;;;;4992643;28;20053;-88
2022/04/07 00:05:04;;;;;;;16.45;3.17;;;9.30;99.90;;;;;;5009050;28;20120;-85
2022/04/07 00:07:30;;;;;;;9.52;2.53;;;9.30;99.90;;;;;;5009251;28;20111;-85
2022/04/07 00:09:58;;;;;;;5.68;1.90;;;9.50;99.90;;;;;;4992569;28;20177;-87
2022/04/07 00:12:37;;;;;;;10.32;2.65;;;9.20;99.90;;;;;;5009207;28;20125;-85
2022/04/07 00:15:03;;;;;;;6.00;2.08;;;9.60;99.90;;;;;;4992320;28;20066;-86
2022/04/07 00:17:29;;;;;;;11.07;2.10;;;9.20;99.90;;;;;;4976047;28;20124;-85
2022/04/07 00:19:54;;;;;;;14.90;2.22;;;9.70;99.90;;;;;;4992706;28;20053;-87
2022/04/07 00:22:23;;;;;;;10.57;1.83;;;9.20;99.90;;;;;;5047850;28;20045;-85
2022/04/07 00:24:49;;;;;;;8.48;1.70;;;9.10;99.90;;;;;;5016224;28;21000;-84
2022/04/07 00:27:16;;;;;;;9.68;1.65;;;9.10;99.90;;;;;;5063272;28;20224;-84
2022/04/07 00:29:41;;;;;;;11.82;2.17;;;9.10;99.90;;;;;;5070693;28;20571;-85
2022/04/07 00:32:07;;;;;;;7.18;1.40;;;9.20;99.90;;;;;;5052145;28;20127;-86
2022/04/07 00:34:33;;;;;;;14.63;1.80;;;9.00;99.90;;;;;;5070689;28;20046;-85
2022/04/07 00:36:59;;;;;;;7.05;1.55;;;9.00;99.90;;;;;;5070640;28;20657;-87
2022/04/07 00:39:25;;;;;;;6.55;1.63;;;9.60;99.90;;;;;;5069937;28;20871;-86
2022/04/07 00:41:50;;;;;;;9.15;1.90;;;9.30;99.90;;;;;;5052270;28;20056;-84
2022/04/07 00:44:16;;;;;;;10.63;1.95;;;9.00;99.90;;;;;;5036280;28;20121;-86
2022/04/07 00:46:45;;;;;;;15.43;2.55;;;9.00;99.90;;;;;;5070678;28;20049;-84
2022/04/07 00:49:11;;;;;;;12.75;1.60;;;9.10;99.90;;;;;;5052263;28;20086;-87
2022/04/07 00:51:40;;;;;;;10.75;2.22;;;9.50;99.90;;;;;;5070659;28;20071;-86
2022/04/07 00:54:09;;;;;;;10.00;2.28;;;9.50;99.90;;;;;;5070227;28;20554;-85
2022/04/07 00:56:59;;;;;;;13.50;2.30;;;9.00;99.90;;;;;;5051245;28;20518;-85
2022/04/07 00:59:25;;;;;;;13.95;1.70;;;8.90;99.90;;;;;;5070174;28;20158;-84
2022/04/07 01:01:57;;;;;;;10.50;2.03;;;9.30;99.90;;;;;;5070245;28;20487;-87
2022/04/07 01:04:37;;;;;;;6.15;1.48;;;9.40;99.90;;;;;;5070366;28;20434;-84
2022/04/07 01:07:12;;;;;;;11.20;2.95;;;9.00;99.90;;;;;;5070320;28;20040;-86
2022/04/07 01:09:37;;;;;;;11.27;1.83;;;9.00;99.90;;;;;;5070239;28;20040;-85
2022/04/07 01:12:03;;;;;;;12.77;1.75;;;9.00;99.90;;;;;;5069580;28;20485;-85
2022/04/07 01:14:32;;;;;;;12.35;2.42;;;9.00;99.90;;;;;;5035985;28;20048;-86
2022/04/07 01:17:04;;;;;;;17.92;2.60;;;9.60;99.90;;;;;;5070305;28;20052;-85
2022/04/07 01:19:30;;;;;;;13.15;2.00;;;9.60;99.90;;;;;;5052523;28;20055;-86
2022/04/07 01:22:07;;;;;;;14.82;2.40;;;8.90;99.90;;;;;;5035726;28;20426;-87
2022/04/07 01:24:44;;;;;;;11.77;2.17;;;8.60;99.90;;;;;;5070495;28;20080;-89
2022/04/07 01:27:29;;;;;;;11.55;1.98;;;9.30;99.90;;;;;;5042144;23;20437;-90
2022/04/07 01:29:56;;;;;;;14.20;2.08;;;8.80;99.90;;;;;;5035764;28;20049;-87
2022/04/07 01:32:44;;;;;;;13.73;2.72;;;9.50;99.90;;;;;;5052068;28;20056;-85
2022/04/07 01:35:10;;;;;;;20.15;2.58;;;8.70;99.90;;;;;;5070164;28;20068;-88
2022/04/07 01:37:37;;;;;;;23.67;3.05;;;9.40;99.90;;;;;;5074293;23;20564;-88
2022/04/07 01:40:16;;;;;;;19.30;3.17;;;9.30;99.90;;;;;;5032154;28;20064;-88
2022/04/07 01:42:52;;;;;;;20.15;3.55;;;8.80;99.90;;;;;;5031501;28;20048;-86
2022/04/07 01:45:19;;;;;;;15.43;2.80;;;9.50;99.90;;;;;;5050158;28;20122;-85
2022/04/07 01:47:45;;;;;;;20.95;3.95;;;8.80;99.90;;;;;;5050022;28;20041;-87
2022/04/07 01:50:11;;;;;;;13.82;2.67;;;9.30;99.90;;;;;;5049900;28;20041;-82
2022/04/07 01:52:39;;;;;;;18.38;3.85;;;9.30;99.90;;;;;;5034949;28;20510;-87
2022/04/07 01:55:06;;;;;;;16.30;2.83;;;8.90;99.90;;;;;;5053549;28;20080;-84
2022/04/07 01:57:35;;;;;;;18.67;4.05;;;8.80;99.90;;;;;;5019011;28;20045;-86
2022/04/07 02:00:06;;;;;;;17.25;3.63;;;8.80;99.90;;;;;;5053472;28;20045;-87
2022/04/07 02:02:52;;;;;;;17.67;2.65;;;8.80;99.90;;;;;;5034948;28;20047;-87
2022/04/07 02:05:18;;;;;;;19.83;3.00;;;9.30;99.90;;;;;;5037953;28;20152;-83
2022/04/07 02:07:44;;;;;;;13.55;3.25;;;8.80;99.90;;;;;;5050410;28;20143;-85
2022/04/07 02:10:14;;;;;;;24.23;3.28;;;8.80;99.90;;;;;;5073605;28;20540;-84
2022/04/07 02:12:41;;;;;;;18.88;3.88;;;9.40;99.90;;;;;;5036926;28;20105;-86
2022/04/07 02:15:20;;;;;;;22.25;3.95;;;9.10;99.90;;;;;;5055578;28;20048;-83
2022/04/07 02:17:45;;;;;;;21.08;3.70;;;8.80;99.90;;;;;;5036862;28;20052;-85
2022/04/07 02:20:11;;;;;;;13.45;2.75;;;8.80;99.90;;;;;;5053370;28;20056;-86
2022/04/07 02:22:50;;;;;;;21.27;2.83;;;9.30;99.90;;;;;;5053547;28;20120;-86
2022/04/07 02:25:23;;;;;;;18.95;3.63;;;9.40;99.90;;;;;;5040222;23;20080;-87
2022/04/07 02:27:55;;;;;;;17.88;3.00;;;9.60;99.90;;;;;;5035139;28;20057;-88
2022/04/07 02:30:29;;;;;;;28.05;4.80;;;8.90;99.90;;;;;;5051586;28;20037;-85
2022/04/07 02:32:54;;;;;;;21.00;3.67;;;9.20;99.90;;;;;;5047534;28;20049;-86
2022/04/07 02:35:20;;;;;;;21.20;3.40;;;9.10;99.90;;;;;;5036631;28;20179;-85
2022/04/07 02:37:46;;;;;;;9.70;2.15;;;8.90;99.90;;;;;;5067439;28;20044;-84
2022/04/07 02:40:13;;;;;;;19.88;3.67;;;9.60;99.90;;;;;;5065368;28;20083;-83
2022/04/07 02:42:56;;;;;;;28.40;3.95;;;9.00;99.90;;;;;;5048010;28;20087;-85
2022/04/07 02:45:36;;;;;;;19.10;3.38;;;9.40;99.90;;;;;;5058626;28;20041;-83
2022/04/07 02:48:02;;;;;;;28.52;4.03;;;9.60;99.90;;;;;;5056329;28;20075;-84
2022/04/07 02:50:31;;;;;;;20.00;3.53;;;8.90;99.90;;;;;;5055345;28;20077;-83
2022/04/07 02:53:00;;;;;;;21.65;3.92;;;8.90;99.90;;;;;;5018575;28;20045;-83
2022/04/07 02:55:37;;;;;;;19.23;3.17;;;8.90;99.90;;;;;;5018241;28;20439;-86
2022/04/07 02:58:15;;;;;;;20.75;4.50;;;8.90;99.90;;;;;;5034309;28;20056;-84
2022/04/07 03:00:47;;;;;;;24.77;3.95;;;9.40;99.90;;;;;;5034859;28;20442;-83
2022/04/07 03:03:19;;;;;;;18.35;3.50;;;9.50;99.90;;;;;;5052106;28;20041;-85
2022/04/07 03:05:44;;;;;;;19.80;3.78;;;9.50;99.90;;;;;;5052688;28;20431;-84
2022/04/07 03:08:14;;;;;;;15.93;3.00;;;9.70;99.90;;;;;;5035132;28;20056;-84
2022/04/07 03:10:48;;;;;;;16.75;4.03;;;8.90;99.90;;;;;;5018662;28;20139;-84
2022/04/07 03:13:36;;;;;;;18.83;3.53;;;8.90;99.90;;;;;;5035244;28;20053;-84
2022/04/07 03:16:03;;;;;;;18.35;2.90;;;8.80;99.90;;;;;;5052129;28;20045;-85
2022/04/07 03:18:29;;;;;;;15.75;3.65;;;9.30;99.90;;;;;;5034108;28;20506;-84
2022/04/07 03:21:03;;;;;;;17.90;4.60;;;9.60;99.90;;;;;;5033646;28;20045;-85
2022/04/07 03:23:29;;;;;;;21.00;3.33;;;8.80;99.90;;;;;;5052587;28;20084;-85
2022/04/07 03:26:05;;;;;;;18.38;4.40;;;8.90;99.90;;;;;;5034910;28;20065;-85
2022/04/07 03:28:31;;;;;;;17.45;3.50;;;9.30;99.90;;;;;;5052381;28;20045;-85
2022/04/07 03:30:57;;;;;;;14.10;3.83;;;9.50;99.90;;;;;;5034321;28;20053;-85
2022/04/07 03:33:37;;;;;;;15.10;3.90;;;9.40;99.90;;;;;;5016632;28;20448;-85
2022/04/07 03:36:04;;;;;;;18.33;3.60;;;9.50;99.90;;;;;;5051973;28;20045;-84
2022/04/07 03:38:31;;;;;;;13.52;3.00;;;8.90;99.90;;;;;;5017324;28;20522;-85
2022/04/07 03:40:59;;;;;;;13.18;3.05;;;8.90;99.90;;;;;;5051116;28;20398;-85
2022/04/07 03:43:31;;;;;;;13.40;2.40;;;9.00;99.90;;;;;;5033703;28;20047;-84
2022/04/07 03:46:16;;;;;;;21.67;3.05;;;9.50;99.90;;;;;;5051876;28;20400;-84
2022/04/07 03:48:41;;;;;;;13.17;3.23;;;9.30;99.90;;;;;;5033312;28;20154;-86
2022/04/07 03:51:07;;;;;;;15.57;4.30;;;8.90;99.90;;;;;;5033530;28;20144;-85
2022/04/07 03:53:39;;;;;;;17.52;2.88;;;8.80;99.90;;;;;;5033382;28;20072;-85
2022/04/07 03:56:07;;;;;;;12.23;3.08;;;9.00;99.90;;;;;;5050509;28;20083;-84
2022/04/07 03:58:36;;;;;;;20.55;2.90;;;9.00;99.90;;;;;;5033384;28;20087;-87
2022/04/07 04:01:02;;;;;;;12.43;2.75;;;9.40;99.90;;;;;;5051115;28;20041;-85
2022/04/07 04:03:28;;;;;;;11.55;2.90;;;9.50;99.90;;;;;;5051129;28;20048;-84
2022/04/07 04:05:54;;;;;;;15.48;2.63;;;9.20;99.90;;;;;;5033772;28;20091;-85
2022/04/07 04:08:20;;;;;;;27.23;4.13;;;9.20;99.90;;;;;;5016094;28;20049;-85
2022/04/07 04:10:46;;;;;;;24.23;3.25;;;9.10;99.90;;;;;;5033583;28;20056;-86
2022/04/07 04:13:26;;;;;;;20.60;2.97;;;9.00;99.90;;;;;;5051122;28;20049;-84
2022/04/07 04:16:08;;;;;;;20.23;3.50;;;9.00;99.90;;;;;;5049935;28;20045;-85
2022/04/07 04:18:34;;;;;;;20.75;3.75;;;8.90;99.90;;;;;;5032639;28;20110;-87
2022/04/07 04:21:03;;;;;;;22.83;3.30;;;9.50;99.90;;;;;;5050985;28;20082;-87
2022/04/07 04:23:28;;;;;;;30.55;3.75;;;9.20;99.90;;;;;;5016910;28;20128;-88
2022/04/07 04:25:57;;;;;;;28.55;4.25;;;9.30;99.90;;;;;;5032096;28;20060;-86
2022/04/07 04:28:23;;;;;;;25.80;3.75;;;8.90;99.90;;;;;;5013338;28;20060;-84
2022/04/07 04:31:01;;;;;;;27.23;3.55;;;9.50;99.90;;;;;;5013344;28;20050;-84
2022/04/07 04:33:26;;;;;;;24.05;3.63;;;9.10;99.90;;;;;;5013161;28;20569;-85
2022/04/07 04:35:52;;;;;;;25.45;4.18;;;8.90;99.90;;;;;;5030645;28;20049;-84
2022/04/07 04:38:21;;;;;;;30.95;5.15;;;8.80;99.90;;;;;;5029950;28;20318;-84
2022/04/07 04:41:02;;;;;;;29.05;4.05;;;9.30;99.90;;;;;;5050596;28;20499;-84
2022/04/07 04:43:33;;;;;;;29.67;4.10;;;8.80;99.90;;;;;;5032935;28;20056;-85
2022/04/07 04:45:59;;;;;;;30.02;4.20;;;9.40;99.90;;;;;;5050645;28;20423;-85
2022/04/07 04:48:35;;;;;;;30.10;5.82;;;9.10;99.90;;;;;;5050594;28;20048;-85
2022/04/07 04:51:02;;;;;;;17.45;3.13;;;9.00;99.90;;;;;;5050224;28;20060;-84
2022/04/07 04:53:29;;;;;;;18.15;3.63;;;8.50;99.90;;;;;;5032485;28;20262;-83
2022/04/07 04:56:00;;;;;;;33.97;4.90;;;9.30;99.90;;;;;;5032074;28;20484;-85
2022/04/07 04:58:35;;;;;;;25.35;4.63;;;9.00;99.90;;;;;;5032129;28;20061;-87
2022/04/07 05:01:00;;;;;;;18.23;3.55;;;9.50;99.90;;;;;;5050234;28;20132;-86
2022/04/07 05:03:29;;;;;;;22.25;4.22;;;8.60;99.90;;;;;;5050464;28;20120;-84
2022/04/07 05:05:55;;;;;;;20.92;4.00;;;9.20;99.90;;;;;;5049923;28;20040;-85
2022/04/07 05:08:20;;;;;;;17.55;3.13;;;9.40;99.90;;;;;;5050494;28;20149;-87
2022/04/07 05:10:46;;;;;;;12.07;2.20;;;8.70;99.90;;;;;;5063947;23;20392;-87
2022/04/07 05:13:27;;;;;;;8.40;1.40;;;8.50;99.90;;;;;;5052184;23;20573;-88
2022/04/07 05:15:53;;;;;;;11.02;1.85;;;8.90;99.90;;;;;;5033427;28;20091;-91
2022/04/07 05:18:24;;;;;;;11.05;1.75;;;8.20;99.90;;;;;;5017322;28;20088;-90
2022/04/07 05:20:58;;;;;;;6.38;0.88;;;8.30;99.90;;;;;;5017118;28;20675;-90
2022/04/07 05:23:30;;;;;;;11.23;1.05;;;7.80;99.90;;;;;;5015982;28;20048;-91
2022/04/07 05:25:56;;;;;;;5.18;1.20;;;7.40;99.90;;;;;;5021026;28;20852;-91
2022/04/07 05:28:42;;;;;;;6.70;0.85;;;7.30;99.90;;;;;;5037799;28;20045;-91
2022/04/07 05:33:56;;;;;;;8.95;1.33;;;6.90;99.90;;;;;;5113292;22;20125;-91
2022/04/07 05:36:36;;;;;;;8.40;1.88;;;7.20;99.90;;;;;;5037502;28;20374;-91
2022/04/07 05:39:07;;;;;;;7.90;1.38;;;7.10;99.90;;;;;;5044432;23;20742;-92
2022/04/07 05:41:33;;;;;;;5.20;1.05;;;6.60;99.90;;;;;;5020267;28;20052;-91
2022/04/07 05:44:01;;;;;;;5.80;1.00;;;6.60;99.90;;;;;;5021287;28;20057;-91
2022/04/07 05:46:32;;;;;;;7.70;1.00;;;7.40;99.90;;;;;;5038202;28;20119;-92
2022/04/07 05:49:01;;;;;;;4.10;0.80;;;6.50;99.90;;;;;;5011456;23;20513;-90
2022/04/07 05:52:14;;;;;;;7.40;0.70;;;6.60;99.90;;;;;;4995874;28;20058;-91
2022/04/07 05:55:16;;;;;;;5.70;1.00;;;5.60;99.90;;;;;;5004610;23;20056;-90
2022/04/07 05:57:49;;;;;;;8.57;1.15;;;6.90;99.90;;;;;;5037745;28;20063;-94
2022/04/07 06:00:17;;;;;;;9.70;1.20;;;6.10;99.90;;;;;;4953128;23;20106;-91
2022/04/07 06:02:49;;;;;;;6.20;0.80;;;5.50;99.90;;;;;;4925853;28;20051;-92
2022/04/07 06:05:16;;;;;;;7.70;0.88;;;6.30;99.90;;;;;;4944038;28;20082;-94
2022/04/07 06:08:18;;;;;;;7.72;1.17;;;6.60;99.90;;;;;;4965968;23;20062;-94
2022/04/07 06:10:47;;;;;;;4.55;0.65;;;5.90;99.90;;;;;;4976583;28;20046;-91
2022/04/07 06:13:16;;;;;;;7.00;1.25;;;6.40;99.90;;;;;;5005568;23;20099;-91
2022/04/07 06:15:42;;;;;;;16.88;1.83;;;6.40;99.90;;;;;;5000959;28;20144;-87
2022/04/07 06:18:18;;;;;;;3.63;0.68;;;5.60;99.90;;;;;;5034542;28;20499;-90
2022/04/07 06:20:57;;;;;;;6.15;0.73;;;6.50;99.90;;;;;;5017477;28;20542;-90
2022/04/07 06:23:28;;;;;;;5.60;0.80;;;5.50;99.90;;;;;;5016536;28;20095;-88
2022/04/07 06:26:29;;;;;;;6.93;0.70;;;5.50;99.90;;;;;;5016364;28;20092;-91
2022/04/07 06:29:06;;;;;;;8.38;1.55;;;6.30;99.90;;;;;;5071052;23;20080;-92
2022/04/07 06:32:23;;;;;;;6.57;1.00;;;6.00;99.90;;;;;;5000546;28;20092;-90
2022/04/07 06:35:08;;;;;;;;;;;;;;;;;;;;;
2022/04/07 06:42:12;;;;;;;5.88;0.82;;;5.50;99.90;;;;;;4991631;23;20051;-93
2022/04/07 06:44:54;;;;;;;5.25;0.98;;;5.50;99.90;;;;;;4956454;29;20047;-92
2022/04/07 06:55:49;;;;;;;4.78;0.70;;;5.70;99.90;;;;;;3859694;22;20146;-90
2022/04/07 06:58:34;;;;;;;3.85;0.60;;;5.70;99.90;;;;;;4962106;28;20046;-90
2022/04/07 07:01:59;;;;;;;3.80;0.55;;;6.50;99.90;;;;;;5024826;23;20505;-90
2022/04/07 07:04:34;;;;;;;4.10;0.30;;;5.70;99.90;;;;;;5053934;28;20064;-91
2022/04/07 07:07:37;;;;;;;;;;;;;;;;;;;;;
2022/04/07 07:10:38;;;;;;;3.63;0.70;;;5.80;99.90;;;;;;5167861;22;20055;-92
2022/04/07 07:22:45;;;;;;;6.82;0.60;;;5.90;99.90;;;;;;4991305;28;20050;-90
2022/04/07 07:25:12;;;;;;;3.30;0.60;;;6.30;99.90;;;;;;4959822;28;20128;-89
2022/04/07 07:27:43;;;;;;;3.85;0.60;;;6.10;99.90;;;;;;4960096;28;20039;-89
2022/04/07 07:33:03;;;;;;;2.50;0.50;;;5.90;99.90;;;;;;5003174;23;20077;-90
2022/04/07 07:35:42;;;;;;;5.20;0.80;;;6.50;99.90;;;;;;4979457;23;20085;-90
2022/04/07 07:41:25;;;;;;;;;;;6.00;99.90;;;;;;5120362;23;20059;-88
2022/04/07 07:44:49;;;;;;;8.43;0.85;;;6.00;99.90;;;;;;4921813;29;19957;-92
2022/04/07 07:47:28;;;;;;;5.82;1.10;;;6.00;99.90;;;;;;4967624;23;20059;-88
2022/04/07 07:50:02;;;;;;;7.82;1.00;;;6.10;99.90;;;;;;5057466;23;20085;-91
2022/04/07 07:56:10;;;;;;;2.92;0.63;;;6.60;99.90;;;;;;4879473;29;20056;-90
2022/04/07 07:58:35;;;;;;;3.50;0.90;;;6.30;99.90;;;;;;4845221;29;20086;-88
2022/04/07 08:01:07;;;;;;;5.85;1.08;;;7.00;99.90;;;;;;4999147;23;20174;-92
2022/04/07 08:06:09;;;;;;;4.72;0.77;;;6.70;99.90;;;;;;4962986;26;20058;-87
2022/04/07 08:08:52;;;;;;;6.80;0.90;;;6.80;99.90;;;;;;4924823;23;21229;-88
2022/04/07 08:11:41;;;;;;;4.57;0.80;;;6.70;99.90;;;;;;4916853;29;20072;-88
2022/04/07 08:14:11;;;;;;;4.68;0.80;;;6.70;99.90;;;;;;4969852;28;20074;-88
2022/04/07 08:16:47;;;;;;;6.70;0.75;;;6.80;99.90;;;;;;4985295;23;20514;-88
2022/04/07 08:19:25;;;;;;;8.63;1.00;;;7.90;99.90;;;;;;5056855;23;20107;-89
2022/04/07 08:21:54;;;;;;;7.20;1.08;;;7.20;99.90;;;;;;4913189;23;20123;-90
2022/04/07 08:24:22;;;;;;;6.47;1.00;;;7.50;99.90;;;;;;4939440;23;20055;-93
2022/04/07 08:27:26;;;;;;;5.65;0.80;;;7.30;99.90;;;;;;4943909;23;20048;-89
2022/04/07 08:30:35;;;;;;;4.97;0.68;;;7.70;99.90;;;;;;4966846;23;20050;-89
2022/04/07 08:33:10;;;;;;;8.40;1.50;;;7.80;99.90;;;;;;4956865;28;20090;-90
2022/04/07 08:35:59;;;;;;;7.43;0.77;;;8.10;99.90;;;;;;4941087;28;20101;-89
2022/04/07 08:38:40;;;;;;;4.88;0.65;;;8.60;99.90;;;;;;4956490;28;20050;-90
2022/04/07 08:41:34;;;;;;;4.53;0.85;;;9.20;99.90;;;;;;4956451;28;20051;-89
2022/04/07 08:44:08;;;;;;;8.35;0.70;;;8.60;99.90;;;;;;4876510;29;20072;-91
2022/04/07 08:46:38;;;;;;;4.10;0.73;;;9.60;99.90;;;;;;4860702;29;20065;-88
2022/04/07 08:49:05;;;;;;;5.88;0.90;;;8.90;99.90;;;;;;4969915;23;20699;-88
2022/04/07 08:51:54;;;;;;;5.30;1.00;;;9.10;99.90;;;;;;4940190;28;20038;-86
2022/04/07 08:54:23;;;;;;;7.22;0.90;;;9.20;99.90;;;;;;5106965;23;20050;-88
2022/04/07 08:56:58;;;;;;;3.50;0.75;;;9.40;99.90;;;;;;4955345;28;20051;-90
2022/04/07 09:02:02;;;;;;;8.00;1.25;;;9.30;99.90;;;;;;4971057;28;20737;-87
2022/04/07 09:04:38;;;;;;;6.90;1.00;;;9.30;99.90;;;;;;4956053;28;20086;-89
2022/04/07 09:07:04;;;;;;;9.60;1.02;;;10.10;99.90;;;;;;4962600;23;20063;-87
2022/04/07 09:09:36;;;;;;;6.95;0.95;;;9.30;99.90;;;;;;4958734;23;20117;-90
2022/04/07 09:12:21;;;;;;;6.30;0.90;;;10.00;99.90;;;;;;4940001;28;20066;-87
2022/04/07 09:15:14;;;;;;;6.72;1.40;;;9.60;99.90;;;;;;4956371;28;20061;-91
2022/04/07 09:17:54;;;;;;;6.38;1.13;;;10.40;99.90;;;;;;4955377;28;20089;-87
2022/04/07 09:20:24;;;;;;;8.27;1.20;;;10.50;99.90;;;;;;4984675;23;20055;31
2022/04/07 09:23:00;;;;;;;7.95;1.00;;;10.70;99.90;;;;;;4971799;28;20565;-91
2022/04/07 09:25:44;;;;;;;12.73;1.65;;;10.50;99.90;;;;;;4974259;28;20055;-89
2022/04/07 09:28:13;;;;;;;10.23;1.30;;;9.60;99.90;;;;;;4955872;28;20074;-89
2022/04/07 09:30:49;;;;;;;4.82;0.93;;;10.10;99.90;;;;;;4984381;28;20127;-89
2022/04/07 09:33:28;;;;;;;9.43;1.27;;;10.20;99.90;;;;;;4967906;28;20047;-89
2022/04/07 09:36:07;;;;;;;6.78;1.25;;;9.60;99.90;;;;;;4986031;28;20046;-88
2022/04/07 09:38:34;;;;;;;9.25;1.60;;;9.70;99.90;;;;;;4957957;29;20054;-88
2022/04/07 09:41:13;;;;;;;9.13;1.15;;;10.70;99.90;;;;;;4955837;28;20126;-88
2022/04/07 09:43:57;;;;;;;8.07;1.75;;;10.70;99.90;;;;;;4954038;29;20106;-89
2022/04/07 09:46:41;;;;;;;9.85;1.13;;;10.30;99.90;;;;;;4997948;23;20543;-86
2022/04/07 09:49:09;;;;;;;5.70;1.83;;;10.70;99.90;;;;;;4939629;28;20130;-87
2022/04/07 09:51:53;;;;;;;12.05;2.30;;;10.70;99.90;;;;;;4955406;28;20043;-90
2022/04/07 09:54:18;;;;;;;6.30;1.65;;;10.80;99.90;;;;;;4955705;28;20054;-88
2022/04/07 09:56:48;;;;;;;9.38;1.13;;;10.50;99.90;;;;;;4955785;28;20043;-88
2022/04/07 09:59:32;;;;;;;11.88;1.63;;;10.00;99.90;;;;;;4972254;28;20039;-90
2022/04/07 10:02:01;;;;;;;9.23;1.02;;;10.50;99.90;;;;;;4972469;28;20055;-87
2022/04/07 10:04:35;;;;;;;11.43;1.58;;;9.60;99.90;;;;;;4972206;28;20797;-87
2022/04/07 10:07:12;;;;;;;10.07;1.65;;;9.90;99.90;;;;;;4939396;28;20500;-87
2022/04/07 10:09:46;;;;;;;14.35;1.40;;;10.70;99.90;;;;;;4955350;28;20502;-86
2022/04/07 10:12:22;;;;;;;9.05;1.45;;;10.20;99.90;;;;;;4939135;28;20047;-86
2022/04/07 10:15:02;;;;;;;23.95;1.90;;;10.40;99.90;;;;;;4943040;28;20600;-88
2022/04/07 10:17:28;;;;;;;7.50;1.33;;;9.90;99.90;;;;;;4943358;28;20073;-89
2022/04/07 10:20:16;;;;;;;8.48;1.30;;;9.90;99.90;;;;;;4977575;28;20490;-87
2022/04/07 10:22:42;;;;;;;9.55;1.98;;;10.10;99.90;;;;;;4943462;28;20063;-88
2022/04/07 10:25:12;;;;;;;7.88;2.13;;;9.80;99.90;;;;;;4958553;28;20117;-89
2022/04/07 10:28:04;;;;;;;8.48;1.50;;;9.60;99.90;;;;;;4943558;28;20069;-90
2022/04/07 10:30:30;;;;;;;16.40;2.13;;;10.00;99.90;;;;;;4943459;28;20078;-88
2022/04/07 10:32:58;;;;;;;10.00;1.63;;;10.40;99.90;;;;;;4977008;28;20054;-93
2022/04/07 10:35:31;;;;;;;9.70;1.65;;;10.60;99.90;;;;;;4977884;28;20043;-90
2022/04/07 10:37:58;;;;;;;18.10;2.03;;;9.90;99.90;;;;;;4958849;28;20065;-88
2022/04/07 10:40:34;;;;;;;8.52;1.27;;;9.60;99.90;;;;;;4978636;28;20100;-87
2022/04/07 10:43:06;;;;;;;9.65;1.92;;;9.70;99.90;;;;;;4969669;28;20054;-89
2022/04/07 10:45:33;;;;;;;8.93;1.92;;;9.30;99.90;;;;;;4971282;28;20051;-90
2022/04/07 10:48:28;;;;;;;16.48;1.80;;;9.80;99.90;;;;;;4956599;28;20074;-89
2022/04/07 10:51:18;;;;;;;10.60;2.03;;;9.00;99.90;;;;;;4986709;28;20059;-91
2022/04/07 10:53:52;;;;;;;;;;;9.50;99.90;;;;;;4887338;29;20440;-92
2022/04/07 10:56:25;;;;;;;10.50;1.90;;;8.70;99.90;;;;;;4886077;29;19931;-89
2022/04/07 10:59:32;;;;;;;8.35;1.10;;;8.70;99.90;;;;;;4899590;29;20048;-90
2022/04/07 11:02:07;;;;;;;10.65;2.20;;;8.80;99.90;;;;;;4885425;29;20072;-90
2022/04/07 11:04:33;;;;;;;9.90;1.40;;;9.40;99.90;;;;;;4899556;29;20060;-88
2022/04/07 11:07:26;;;;;;;10.63;2.10;;;9.50;99.90;;;;;;4883160;29;20060;-89
2022/04/07 11:10:05;;;;;;;12.32;1.98;;;9.00;99.90;;;;;;4893668;29;20076;-88
2022/04/07 11:13:06;;;;;;;13.18;2.17;;;9.10;99.90;;;;;;4896037;29;20060;-86
2022/04/07 11:15:50;;;;;;;7.38;1.85;;;9.20;99.90;;;;;;4896724;29;20057;-85
2022/04/07 11:18:36;;;;;;;10.70;1.98;;;10.10;99.90;;;;;;4879253;29;20075;-87
2022/04/07 11:21:16;;;;;;;17.60;2.00;;;10.00;99.90;;;;;;4877757;29;20049;-88
2022/04/07 11:23:51;;;;;;;15.15;2.28;;;9.60;99.90;;;;;;4910871;28;20059;-87
2022/04/07 11:26:34;;;;;;;;;;;9.70;99.90;;;;;;4942619;28;20474;-89
2022/04/07 11:29:12;;;;;;;13.60;1.70;;;9.80;99.90;;;;;;4974086;28;19918;-88
2022/04/07 11:31:48;;;;;;;10.38;1.90;;;10.30;99.90;;;;;;4974574;28;20383;-88
2022/04/07 11:35:00;;;;;;;8.52;1.70;;;10.30;99.90;;;;;;4974486;28;20681;-86
2022/04/07 11:37:39;;;;;;;12.60;2.22;;;9.50;99.90;;;;;;4956991;28;20133;-92
2022/04/07 11:40:05;;;;;;;10.15;1.90;;;9.20;99.90;;;;;;4957119;28;20039;-88
2022/04/07 11:42:32;;;;;;;7.50;2.10;;;9.60;99.90;;;;;;4957002;28;20054;-87
2022/04/07 11:45:14;;;;;;;11.02;2.78;;;10.30;99.90;;;;;;4954757;28;20047;-87
2022/04/07 11:47:49;;;;;;;10.70;1.85;;;10.30;99.90;;;;;;4978615;28;20058;-86
2022/04/07 11:50:15;;;;;;;10.48;1.60;;;9.90;99.90;;;;;;4974156;28;20053;-86
2022/04/07 11:52:48;;;;;;;10.65;1.95;;;10.40;99.90;;;;;;4938932;29;20047;-85
2022/04/07 11:55:27;;;;;;;6.53;1.33;;;9.60;99.90;;;;;;4954450;29;20451;-86
2022/04/07 11:58:10;;;;;;;6.70;1.23;;;9.60;99.90;;;;;;4972792;28;20101;-86
2022/04/07 12:00:38;;;;;;;5.82;1.45;;;9.60;99.90;;;;;;4955947;28;20089;-85
2022/04/07 12:03:10;;;;;;;9.13;1.58;;;9.40;99.90;;;;;;4960797;28;20129;-88
2022/04/07 12:05:38;;;;;;;12.63;1.88;;;10.70;99.90;;;;;;4947270;23;20672;-87
2022/04/07 12:08:22;;;;;;;12.20;2.47;;;9.80;99.90;;;;;;4975854;28;20053;-87
2022/04/07 12:11:05;;;;;;;10.88;1.65;;;10.10;99.90;;;;;;4991727;28;20544;-86
2022/04/07 12:13:32;;;;;;;6.72;1.45;;;10.60;99.90;;;;;;4992306;28;20109;-87
2022/04/07 12:15:59;;;;;;;8.57;1.55;;;10.10;99.90;;;;;;4996505;28;20405;-84
2022/04/07 12:18:26;;;;;;;7.13;1.40;;;10.00;99.90;;;;;;4995047;28;20054;-83
2022/04/07 12:21:00;;;;;;;7.50;1.60;;;9.90;99.90;;;;;;4971985;28;20054;-82
2022/04/07 12:23:29;;;;;;;9.82;2.03;;;10.30;99.90;;;;;;4994012;28;20049;-85
2022/04/07 12:26:08;;;;;;;8.00;1.65;;;10.10;99.90;;;;;;4959424;28;20152;-86
2022/04/07 12:28:39;;;;;;;9.95;1.42;;;9.50;99.90;;;;;;4983151;28;20065;-89
2022/04/07 12:31:22;;;;;;;6.97;1.20;;;8.40;99.90;;;;;;4998192;28;20073;-91
2022/04/07 12:33:49;;;;;;;5.43;1.05;;;7.60;99.90;;;;;;4982862;28;20057;-84
2022/04/07 12:36:16;;;;;;;9.98;1.00;;;8.10;99.90;;;;;;5000442;28;20054;-86
2022/04/07 12:39:12;;;;;;;10.02;1.48;;;7.40;99.90;;;;;;4992362;28;20121;-90
2022/04/07 12:42:04;;;;;;;10.95;1.80;;;8.20;99.90;;;;;;5008052;28;20057;-85
2022/04/07 12:44:30;;;;;;;7.85;1.45;;;8.30;99.90;;;;;;4989285;28;20589;-88
2022/04/07 12:50:05;;;;;;;9.77;1.48;;;8.70;99.90;;;;;;4979940;28;20140;-87
2022/04/07 12:52:53;;;;;;;8.20;1.20;;;8.60;99.90;;;;;;4999293;28;20050;-90
2022/04/07 12:55:35;;;;;;;13.07;1.55;;;7.90;99.90;;;;;;4975357;28;20081;-91
2022/04/07 12:58:05;;;;;;;3.25;1.00;;;7.70;99.90;;;;;;4973954;28;20204;-88
2022/04/07 13:00:34;;;;;;;6.95;0.90;;;7.50;99.90;;;;;;4982454;28;20054;-83
2022/04/07 13:03:02;;;;;;;7.43;1.08;;;7.50;99.90;;;;;;4989200;28;20042;-86
2022/04/07 13:05:35;;;;;;;5.93;1.38;;;7.70;99.90;;;;;;4975447;28;20074;-83
2022/04/07 13:08:18;;;;;;;5.50;1.20;;;9.10;99.90;;;;;;4975556;28;20041;-85
2022/04/07 13:11:01;;;;;;;5.97;1.30;;;8.70;99.90;;;;;;4963167;28;20584;-89
2022/04/07 13:13:27;;;;;;;13.35;1.17;;;8.60;99.90;;;;;;5006478;28;20042;-86
2022/04/07 13:15:59;;;;;;;5.85;1.35;;;8.60;99.90;;;;;;4974144;28;20054;-92
2022/04/07 13:18:30;;;;;;;11.25;1.23;;;9.60;99.90;;;;;;4973056;28;20058;-86
2022/04/07 13:21:08;;;;;;;6.45;0.98;;;8.70;99.90;;;;;;4973061;28;20065;-90
2022/04/07 13:23:44;;;;;;;5.78;1.30;;;8.80;99.90;;;;;;4973219;28;20057;-85
2022/04/07 13:26:10;;;;;;;8.60;1.50;;;9.30;99.90;;;;;;4999838;28;20776;-86
2022/04/07 13:28:35;;;;;;;15.63;2.00;;;10.00;99.90;;;;;;5001118;28;20051;-86
2022/04/07 13:31:03;;;;;;;7.53;1.30;;;9.30;99.90;;;;;;4979112;28;20108;-88
2022/04/07 13:33:29;;;;;;;11.07;1.38;;;8.10;99.90;;;;;;4997338;28;20497;-89
2022/04/07 13:36:00;;;;;;;9.50;2.58;;;7.90;99.90;;;;;;4976727;28;20113;-88
2022/04/07 13:38:32;;;;;;;8.90;1.40;;;7.50;99.90;;;;;;4993712;28;20062;-86
2022/04/07 13:41:16;;;;;;;5.03;0.93;;;7.90;99.90;;;;;;4993046;28;20497;-87
2022/04/07 13:43:42;;;;;;;9.98;0.60;;;7.70;99.90;;;;;;4960438;28;20057;-90
2022/04/07 13:46:08;;;;;;;5.38;0.77;;;7.70;99.90;;;;;;4995830;28;20038;-94
2022/04/07 13:48:44;;;;;;;5.55;0.80;;;7.50;99.90;;;;;;5000629;28;20062;-89
2022/04/07 13:51:10;;;;;;;4.53;0.60;;;7.30;99.90;;;;;;5000993;28;20037;-89
2022/04/07 13:53:56;;;;;;;3.67;0.77;;;6.80;99.90;;;;;;5004941;28;20081;-87
2022/04/07 13:56:25;;;;;;;4.45;0.68;;;6.60;99.90;;;;;;5138530;23;20053;-89
2022/04/07 13:59:00;;;;;;;4.10;0.50;;;7.40;99.90;;;;;;5028686;28;20077;-89
2022/04/07 14:01:33;;;;;;;;;;;7.00;99.90;;;;;;5011497;28;20050;-86
2022/04/07 14:03:58;;;;;;;4.82;0.85;;;6.40;99.90;;;;;;5017608;28;19921;-91
2022/04/07 14:06:34;;;;;;;2.10;0.60;;;6.60;99.90;;;;;;4988433;28;20117;-90
2022/04/07 14:08:59;;;;;;;2.42;0.40;;;7.10;99.90;;;;;;5025445;28;20389;-88
2022/04/07 14:11:25;;;;;;;2.97;0.80;;;6.60;99.90;;;;;;4989807;28;20037;-90